Time;durP1;ratioP1;P1;durP2;ratioP2;P2;SDS_P1;SDS_P2;PMS_P1;PMS_P2;Temp;Humidity;BMP_temperature;BMP_pressure;BME280_temperature;BME280_humidity;BME280_pressure;Samples;Min_cycle;Max_cycle;Signal;HPM_P1;HPM_P2
2023/10/29 00:00:05;;;;;;;;;;;17.40;61.50;;;;;;4995550;28;87738;-45
2023/10/29 00:02:30;;;;;;;;;;;17.40;61.50;;;;;;4994347;28;87561;-45
2023/10/29 00:04:56;;;;;;;;;;;17.40;61.50;;;;;;4994328;28;87199;-45
2023/10/29 00:07:21;;;;;;;;;;;17.40;61.50;;;;;;4997917;28;87455;-44
2023/10/29 00:09:47;;;;;;;;;;;17.40;61.40;;;;;;4992516;28;88216;-47
2023/10/29 00:12:12;;;;;;;;;;;17.30;61.40;;;;;;4994460;28;88808;-44
2023/10/29 00:14:38;;;;;;;;;;;17.30;61.40;;;;;;4995597;28;88183;-44
2023/10/29 00:17:03;;;;;;;;;;;17.30;61.50;;;;;;4993323;28;87761;-44
2023/10/29 00:19:29;;;;;;;;;;;17.30;62.00;;;;;;4994533;28;88874;-43
2023/10/29 00:21:54;;;;;;;;;;;17.30;61.40;;;;;;4994135;28;87170;-46
2023/10/29 00:24:22;;;;;;;;;;;17.30;61.50;;;;;;4993772;28;87827;-45
2023/10/29 00:26:47;;;;;;;;;;;17.20;61.40;;;;;;5000048;28;87608;-44
2023/10/29 00:29:13;;;;;;;;;;;17.20;61.40;;;;;;4992664;28;87170;-45
2023/10/29 00:31:38;;;;;;;;;;;17.20;61.40;;;;;;4995385;28;87967;-45
2023/10/29 00:34:04;;;;;;;;;;;17.20;62.10;;;;;;4992042;28;88143;-44
2023/10/29 00:36:29;;;;;;;;;;;17.20;61.40;;;;;;4994627;28;87103;-44
2023/10/29 00:38:55;;;;;;;;;;;17.20;61.30;;;;;;4994359;28;87300;-44
2023/10/29 00:41:21;;;;;;;;;;;17.20;61.40;;;;;;4993661;28;87963;-44
2023/10/29 00:43:46;;;;;;;;;;;17.20;61.30;;;;;;4995258;28;87065;-44
2023/10/29 00:46:13;;;;;;;;;;;17.20;61.30;;;;;;4992151;28;88724;-45
2023/10/29 00:48:39;;;;;;;;;;;17.20;61.40;;;;;;4994935;28;88208;-44
2023/10/29 00:51:04;;;;;;;;;;;17.10;61.30;;;;;;4994917;28;87260;-44
2023/10/29 00:53:30;;;;;;;;;;;17.10;61.30;;;;;;4993112;28;87971;-46
2023/10/29 00:55:57;;;;;;;;;;;17.10;61.30;;;;;;4993792;28;87136;-44
2023/10/29 00:58:23;;;;;;;;;;;17.10;61.40;;;;;;4994068;28;88116;-44
2023/10/29 01:00:49;;;;;;;;;;;17.10;61.40;;;;;;4994659;28;87627;-44
2023/10/29 01:03:16;;;;;;;;;;;17.10;61.30;;;;;;4992020;28;87185;-44
2023/10/29 01:05:41;;;;;;;;;;;17.10;61.30;;;;;;4994961;28;88779;-46
2023/10/29 01:08:07;;;;;;;;;;;17.00;61.20;;;;;;4992594;28;88340;-45
2023/10/29 01:10:33;;;;;;;;;;;17.00;61.20;;;;;;4996750;28;87086;-44
2023/10/29 01:12:58;;;;;;;;;;;17.00;61.20;;;;;;4992696;28;88207;-44
2023/10/29 01:15:24;;;;;;;;;;;17.00;61.20;;;;;;4993142;28;86415;-45
2023/10/29 01:17:49;;;;;;;;;;;17.00;61.20;;;;;;4994911;28;87033;-44
2023/10/29 01:20:15;;;;;;;;;;;17.00;61.20;;;;;;4989562;28;89212;-45
2023/10/29 01:22:41;;;;;;;;;;;17.00;61.20;;;;;;4994213;28;88140;-44
2023/10/29 01:25:09;;;;;;;;;;;17.00;61.10;;;;;;4992199;28;88744;-45
2023/10/29 01:27:37;;;;;;;;;;;16.90;61.10;;;;;;4992275;28;88157;-44
2023/10/29 01:30:05;;;;;;;;;;;16.90;61.10;;;;;;4994356;28;87226;-44
2023/10/29 01:32:31;;;;;;;;;;;16.90;61.10;;;;;;4994059;28;87080;-44
2023/10/29 01:34:56;;;;;;;;;;;16.90;61.10;;;;;;4994787;28;87145;-43
2023/10/29 01:37:22;;;;;;;;;;;16.90;61.00;;;;;;4991974;28;87434;-44
2023/10/29 01:39:47;;;;;;;;;;;16.90;61.10;;;;;;4993929;28;87293;-45
2023/10/29 01:42:13;;;;;;;;;;;16.90;61.10;;;;;;4992376;28;87137;-44
2023/10/29 01:44:38;;;;;;;;;;;16.90;61.10;;;;;;4992220;28;87179;-44
2023/10/29 01:47:04;;;;;;;;;;;16.80;61.10;;;;;;4993189;28;88939;-44
2023/10/29 01:49:29;;;;;;;;;;;16.80;61.10;;;;;;4991533;28;87142;-46
2023/10/29 01:51:55;;;;;;;;;;;16.80;61.10;;;;;;4994284;28;87887;-46
2023/10/29 01:54:23;;;;;;;;;;;16.80;61.10;;;;;;4994150;28;88000;-44
2023/10/29 01:56:49;;;;;;;;;;;16.80;61.10;;;;;;4991924;28;87522;-44
2023/10/29 01:59:14;;;;;;;;;;;16.70;61.10;;;;;;4999385;28;91112;-44
2023/10/29 02:01:40;;;;;;;;;;;16.70;61.10;;;;;;4992372;28;87506;-44
2023/10/29 02:04:10;;;;;;;;;;;16.70;61.00;;;;;;4994482;28;87362;-46
2023/10/29 02:06:39;;;;;;;;;;;16.70;61.00;;;;;;4990686;28;88180;-44
2023/10/29 02:09:05;;;;;;;;;;;16.70;61.10;;;;;;4993138;28;87127;-43
2023/10/29 02:11:30;;;;;;;;;;;16.70;61.10;;;;;;4992502;28;88201;-45
2023/10/29 02:13:56;;;;;;;;;;;16.70;61.10;;;;;;4993469;28;88278;-43
2023/10/29 02:16:23;;;;;;;;;;;16.60;61.00;;;;;;4994209;28;87178;-43
2023/10/29 02:18:49;;;;;;;;;;;16.60;61.00;;;;;;4993790;28;87901;-44
2023/10/29 02:21:15;;;;;;;;;;;16.60;61.00;;;;;;4990992;28;87112;-44
2023/10/29 02:23:40;;;;;;;;;;;16.60;61.00;;;;;;4993483;28;88782;-44
2023/10/29 02:26:06;;;;;;;;;;;16.60;61.00;;;;;;4991380;28;89680;-45
2023/10/29 02:28:31;;;;;;;;;;;16.60;61.00;;;;;;4992114;28;87194;-44
2023/10/29 02:30:57;;;;;;;;;;;16.60;61.00;;;;;;4993146;28;87182;-43
2023/10/29 02:33:22;;;;;;;;;;;16.60;60.90;;;;;;4990941;28;88190;-44
2023/10/29 02:35:49;;;;;;;;;;;16.60;60.90;;;;;;4995982;28;87930;-44
2023/10/29 02:38:16;;;;;;;;;;;16.60;60.90;;;;;;4990269;28;88132;-45
2023/10/29 02:40:42;;;;;;;;;;;16.50;60.80;;;;;;4993061;28;87224;-44
2023/10/29 02:43:08;;;;;;;;;;;16.50;61.00;;;;;;4991785;28;87266;-44
2023/10/29 02:45:33;;;;;;;;;;;16.50;61.00;;;;;;4989878;28;88088;-45
2023/10/29 02:47:59;;;;;;;;;;;16.50;61.00;;;;;;4992974;28;87083;-44
2023/10/29 02:50:25;;;;;;;;;;;16.50;60.90;;;;;;4990807;28;87619;-45
2023/10/29 02:52:50;;;;;;;;;;;16.50;60.90;;;;;;4993724;28;87328;-44
2023/10/29 02:55:15;;;;;;;;;;;16.40;60.90;;;;;;4993404;28;87160;-43
2023/10/29 02:57:41;;;;;;;;;;;16.40;60.90;;;;;;4999320;28;87267;-44
2023/10/29 03:00:07;;;;;;;;;;;16.40;60.90;;;;;;4996079;28;88196;-43
2023/10/29 03:02:32;;;;;;;;;;;16.40;60.90;;;;;;4995678;28;88277;-43
2023/10/29 03:04:58;;;;;;;;;;;16.40;60.90;;;;;;4994497;28;88197;-44
2023/10/29 03:07:23;;;;;;;;;;;16.30;60.90;;;;;;4996632;28;87377;-45
2023/10/29 03:09:49;;;;;;;;;;;16.30;60.90;;;;;;4994029;28;87729;-45
2023/10/29 03:12:14;;;;;;;;;;;16.30;60.90;;;;;;4996824;28;87950;-44
2023/10/29 03:14:40;;;;;;;;;;;16.30;60.90;;;;;;4993686;28;87116;-47
2023/10/29 03:17:05;;;;;;;;;;;16.30;60.90;;;;;;4996589;28;87105;-44
2023/10/29 03:19:31;;;;;;;;;;;16.30;60.90;;;;;;4997557;28;88106;-44
2023/10/29 03:21:57;;;;;;;;;;;16.20;61.00;;;;;;4995191;28;87602;-47
2023/10/29 03:24:22;;;;;;;;;;;16.30;60.90;;;;;;4994947;28;88233;-46
2023/10/29 03:26:48;;;;;;;;;;;16.20;60.90;;;;;;4993990;28;87198;-43
2023/10/29 03:29:13;;;;;;;;;;;16.20;60.80;;;;;;4996117;28;87486;-44
2023/10/29 03:31:39;;;;;;;;;;;16.20;60.90;;;;;;4993272;28;88104;-46
2023/10/29 03:34:05;;;;;;;;;;;16.20;60.90;;;;;;4996146;28;87690;-44
2023/10/29 03:36:30;;;;;;;;;;;16.20;60.80;;;;;;4994634;28;87341;-43
2023/10/29 03:38:56;;;;;;;;;;;16.20;60.90;;;;;;4994711;28;88155;-44
2023/10/29 03:41:22;;;;;;;;;;;16.10;60.90;;;;;;4998753;28;86399;-45
2023/10/29 03:43:48;;;;;;;;;;;16.10;60.90;;;;;;4993553;28;87817;-44
2023/10/29 03:46:13;;;;;;;;;;;16.20;60.90;;;;;;4995734;28;86941;-43
2023/10/29 03:48:44;;;;;;;;;;;16.10;60.80;;;;;;4992849;28;88033;-45
2023/10/29 03:51:13;;;;;;;;;;;16.10;60.80;;;;;;4994350;28;89816;-43
2023/10/29 03:53:38;;;;;;;;;;;16.10;60.80;;;;;;5002771;28;87129;-45
2023/10/29 03:56:04;;;;;;;;;;;16.10;60.80;;;;;;4993322;28;88449;-44
2023/10/29 03:58:30;;;;;;;;;;;16.10;60.70;;;;;;4995829;28;90055;-44
2023/10/29 04:00:56;;;;;;;;;;;16.00;60.70;;;;;;4995501;28;87208;-44
2023/10/29 04:03:22;;;;;;;;;;;16.00;60.80;;;;;;4996087;28;87239;-44
2023/10/29 04:05:47;;;;;;;;;;;16.00;60.90;;;;;;4994846;28;86721;-43
2023/10/29 04:08:13;;;;;;;;;;;16.00;60.80;;;;;;4994741;28;87347;-45
2023/10/29 04:10:39;;;;;;;;;;;16.00;60.70;;;;;;4993588;28;89194;-44
2023/10/29 04:13:04;;;;;;;;;;;16.00;60.70;;;;;;4994917;28;88095;-44
2023/10/29 04:15:29;;;;;;;;;;;16.00;60.70;;;;;;4992346;28;88544;-46
2023/10/29 04:17:55;;;;;;;;;;;15.90;60.70;;;;;;4995491;28;88076;-43
2023/10/29 04:20:20;;;;;;;;;;;15.90;60.70;;;;;;4993056;28;87157;-43
2023/10/29 04:22:46;;;;;;;;;;;15.90;60.70;;;;;;4997721;28;87632;-47
2023/10/29 04:25:11;;;;;;;;;;;15.90;60.70;;;;;;4994077;28;87123;-44
2023/10/29 04:27:37;;;;;;;;;;;15.90;60.70;;;;;;4994061;28;87469;-43
2023/10/29 04:30:03;;;;;;;;;;;15.80;60.70;;;;;;4995080;28;87202;-43
2023/10/29 04:32:28;;;;;;;;;;;15.80;60.80;;;;;;4995600;28;87020;-44
2023/10/29 04:34:54;;;;;;;;;;;15.80;60.70;;;;;;4992334;28;87330;-44
2023/10/29 04:37:20;;;;;;;;;;;15.80;60.80;;;;;;4994495;28;90155;-44
2023/10/29 04:39:46;;;;;;;;;;;15.80;60.80;;;;;;4993220;28;87222;-43
2023/10/29 04:42:11;;;;;;;;;;;15.80;60.60;;;;;;4994048;28;88011;-46
2023/10/29 04:44:37;;;;;;;;;;;15.80;60.70;;;;;;4996674;28;88083;-45
2023/10/29 04:47:03;;;;;;;;;;;15.80;60.70;;;;;;4993542;28;87647;-45
2023/10/29 04:49:29;;;;;;;;;;;15.80;60.70;;;;;;4994090;28;88072;-44
2023/10/29 04:51:55;;;;;;;;;;;15.80;60.60;;;;;;4991729;28;87441;-45
2023/10/29 04:54:20;;;;;;;;;;;15.70;60.70;;;;;;4995926;28;87295;-44
2023/10/29 04:56:46;;;;;;;;;;;15.80;60.60;;;;;;4992645;28;88100;-43
2023/10/29 04:59:11;;;;;;;;;;;15.70;60.50;;;;;;4994173;28;87130;-43
2023/10/29 05:01:38;;;;;;;;;;;15.70;60.60;;;;;;4993533;28;88087;-43
2023/10/29 05:04:04;;;;;;;;;;;15.60;60.60;;;;;;4992558;28;88289;-44
2023/10/29 05:06:29;;;;;;;;;;;15.70;60.60;;;;;;5004805;28;87188;-44
2023/10/29 05:08:55;;;;;;;;;;;15.60;60.50;;;;;;4991381;28;87962;-44
2023/10/29 05:11:20;;;;;;;;;;;15.60;60.60;;;;;;4995151;28;87105;-46
2023/10/29 05:13:46;;;;;;;;;;;15.60;60.60;;;;;;4992595;28;87306;-43
2023/10/29 05:16:11;;;;;;;;;;;15.60;60.60;;;;;;4993599;28;88222;-43
2023/10/29 05:18:37;;;;;;;;;;;15.60;60.50;;;;;;4992144;28;86423;-45
2023/10/29 05:21:03;;;;;;;;;;;15.60;60.50;;;;;;4992881;28;87334;-44
2023/10/29 05:23:29;;;;;;;;;;;15.60;60.60;;;;;;4994041;28;87818;-43
2023/10/29 05:25:54;;;;;;;;;;;15.60;60.40;;;;;;4990121;28;88208;-43
2023/10/29 05:28:21;;;;;;;;;;;15.60;60.60;;;;;;4995147;28;88313;-45
2023/10/29 05:30:47;;;;;;;;;;;15.60;60.50;;;;;;4988823;28;87647;-44
2023/10/29 05:33:12;;;;;;;;;;;15.50;60.50;;;;;;4988456;28;88812;-44
2023/10/29 05:35:38;;;;;;;;;;;15.60;60.50;;;;;;4987670;28;88183;-46
2023/10/29 05:38:04;;;;;;;;;;;15.50;60.40;;;;;;4991565;28;87138;-44
2023/10/29 05:40:29;;;;;;;;;;;15.50;60.40;;;;;;4987082;28;87470;-44
2023/10/29 05:42:55;;;;;;;;;;;15.50;60.50;;;;;;4991303;28;87085;-44
2023/10/29 05:45:20;;;;;;;;;;;15.50;60.50;;;;;;4990473;28;87311;-45
2023/10/29 05:47:46;;;;;;;;;;;15.50;60.50;;;;;;4989777;28;87465;-43
2023/10/29 05:50:11;;;;;;;;;;;15.50;60.40;;;;;;4993225;28;88268;-44
2023/10/29 05:52:37;;;;;;;;;;;15.40;60.40;;;;;;4989477;28;88442;-44
2023/10/29 05:55:03;;;;;;;;;;;15.50;60.90;;;;;;4985110;28;88273;-43
2023/10/29 05:57:29;;;;;;;;;;;15.50;60.40;;;;;;4990186;28;87647;-44
2023/10/29 05:59:54;;;;;;;;;;;15.40;60.40;;;;;;4989154;28;87627;-44
2023/10/29 06:02:20;;;;;;;;;;;15.40;60.30;;;;;;4991479;28;88251;-43
2023/10/29 06:04:46;;;;;;;;;;;15.50;60.40;;;;;;4986658;28;87228;-43
2023/10/29 06:07:12;;;;;;;;;;;15.40;60.30;;;;;;4990023;28;88747;-44
2023/10/29 06:09:39;;;;;;;;;;;15.50;60.30;;;;;;4986993;28;88099;-43
2023/10/29 06:12:05;;;;;;;;;;;15.40;60.30;;;;;;4992133;28;87236;-44
2023/10/29 06:14:31;;;;;;;;;;;15.40;60.30;;;;;;4987255;28;90853;-45
2023/10/29 06:16:57;;;;;;;;;;;15.40;60.30;;;;;;4990259;28;87186;-43
2023/10/29 06:19:23;;;;;;;;;;;15.40;60.30;;;;;;4994149;28;87404;-45
2023/10/29 06:21:49;;;;;;;;;;;15.40;60.30;;;;;;4985196;28;87982;-43
2023/10/29 06:24:14;;;;;;;;;;;15.40;60.30;;;;;;4986299;28;87113;-43
2023/10/29 06:26:40;;;;;;;;;;;15.40;60.30;;;;;;4992586;28;87627;-44
2023/10/29 06:29:06;;;;;;;;;;;15.30;60.30;;;;;;4993396;28;89714;-43
2023/10/29 06:31:33;;;;;;;;;;;15.40;60.20;;;;;;4995972;28;86482;-44
2023/10/29 06:33:59;;;;;;;;;;;15.40;60.00;;;;;;4988357;28;88382;-45
2023/10/29 06:36:25;;;;;;;;;;;15.40;60.00;;;;;;4989468;28;88062;-43
2023/10/29 06:38:50;;;;;;;;;;;15.40;60.10;;;;;;4989711;28;88191;-44
2023/10/29 06:41:16;;;;;;;;;;;15.40;60.10;;;;;;4992290;28;88411;-44
2023/10/29 06:43:41;;;;;;;;;;;15.40;60.00;;;;;;4994426;28;87121;-43
2023/10/29 06:46:07;;;;;;;;;;;15.40;59.90;;;;;;4992349;28;87526;-44
2023/10/29 06:48:32;;;;;;;;;;;15.40;60.50;;;;;;4985932;28;89290;-44
2023/10/29 06:50:58;;;;;;;;;;;15.40;60.00;;;;;;4993310;28;87240;-43
2023/10/29 06:53:23;;;;;;;;;;;15.40;60.10;;;;;;4994003;28;87693;-45
2023/10/29 06:55:49;;;;;;;;;;;15.40;60.10;;;;;;4991600;28;86492;-43
2023/10/29 06:58:14;;;;;;;;;;;15.40;60.00;;;;;;4988821;28;88222;-43
2023/10/29 07:00:40;;;;;;;;;;;15.40;60.00;;;;;;4989902;28;91605;-44
2023/10/29 07:03:05;;;;;;;;;;;15.40;60.10;;;;;;4990878;28;88136;-43
2023/10/29 07:05:31;;;;;;;;;;;15.40;60.10;;;;;;4991003;28;88153;-43
2023/10/29 07:07:57;;;;;;;;;;;15.40;60.00;;;;;;4986148;28;88134;-44
2023/10/29 07:10:23;;;;;;;;;;;15.40;60.20;;;;;;4989775;28;87230;-43
2023/10/29 07:12:49;;;;;;;;;;;15.40;60.10;;;;;;4989439;28;87234;-44
2023/10/29 07:15:14;;;;;;;;;;;15.40;60.10;;;;;;4993625;28;89046;-46
2023/10/29 07:17:40;;;;;;;;;;;15.40;60.30;;;;;;4990362;28;88075;-43
2023/10/29 07:20:06;;;;;;;;;;;15.40;60.20;;;;;;4992849;28;88813;-44
2023/10/29 07:22:31;;;;;;;;;;;15.40;60.20;;;;;;4988774;28;87229;-44
2023/10/29 07:24:57;;;;;;;;;;;15.40;60.20;;;;;;4990430;28;88555;-43
2023/10/29 07:27:23;;;;;;;;;;;15.40;60.20;;;;;;4988886;28;89032;-43
2023/10/29 07:29:48;;;;;;;;;;;15.30;60.30;;;;;;4991117;28;88184;-44
2023/10/29 07:32:14;;;;;;;;;;;15.30;60.30;;;;;;4987009;28;87468;-43
2023/10/29 07:34:39;;;;;;;;;;;15.30;60.30;;;;;;4985814;28;88308;-43
2023/10/29 07:37:05;;;;;;;;;;;15.30;60.30;;;;;;4992449;28;87125;-44
2023/10/29 07:39:30;;;;;;;;;;;15.30;60.40;;;;;;4991777;28;88349;-43
2023/10/29 07:41:56;;;;;;;;;;;15.30;60.40;;;;;;4991050;28;87426;-45
2023/10/29 07:44:24;;;;;;;;;;;15.30;60.50;;;;;;4992313;28;87621;-45
2023/10/29 07:46:50;;;;;;;;;;;15.30;60.50;;;;;;4995777;28;88255;-44
2023/10/29 07:49:15;;;;;;;;;;;15.30;60.50;;;;;;4995617;28;87170;-44
2023/10/29 07:51:41;;;;;;;;;;;15.30;60.50;;;;;;4989965;28;88263;-44
2023/10/29 07:54:06;;;;;;;;;;;15.30;60.70;;;;;;4992298;28;87791;-44
2023/10/29 07:56:32;;;;;;;;;;;15.20;60.60;;;;;;4995819;28;87181;-44
2023/10/29 07:58:57;;;;;;;;;;;15.30;60.60;;;;;;4995552;28;87338;-44
2023/10/29 08:01:23;;;;;;;;;;;15.30;60.60;;;;;;4996818;28;87561;-44
2023/10/29 08:03:50;;;;;;;;;;;15.20;60.70;;;;;;4992739;28;87323;-43
2023/10/29 08:06:15;;;;;;;;;;;15.30;60.80;;;;;;4995542;28;87898;-46
2023/10/29 08:08:41;;;;;;;;;;;15.20;60.80;;;;;;4990949;28;86437;-43
2023/10/29 08:11:07;;;;;;;;;;;15.20;60.90;;;;;;4991246;28;87884;-44
2023/10/29 08:13:32;;;;;;;;;;;15.20;60.90;;;;;;4995029;28;87579;-44
2023/10/29 08:15:58;;;;;;;;;;;15.20;60.90;;;;;;4994846;28;88094;-43
2023/10/29 08:18:23;;;;;;;;;;;15.20;60.90;;;;;;4993225;28;88916;-44
2023/10/29 08:20:49;;;;;;;;;;;15.20;60.90;;;;;;4995804;28;87223;-45
2023/10/29 08:23:15;;;;;;;;;;;15.20;61.10;;;;;;4993467;28;87358;-43
2023/10/29 08:25:40;;;;;;;;;;;15.10;61.10;;;;;;4989599;28;87906;-43
2023/10/29 08:28:10;;;;;;;;;;;15.20;61.10;;;;;;4994232;28;87139;-45
2023/10/29 08:30:35;;;;;;;;;;;15.20;61.20;;;;;;4987428;28;87223;-46
2023/10/29 08:33:01;;;;;;;;;;;15.20;61.10;;;;;;4991807;28;89094;-45
2023/10/29 08:35:26;;;;;;;;;;;15.20;61.10;;;;;;4994064;28;89027;-43
2023/10/29 08:37:52;;;;;;;;;;;15.20;61.20;;;;;;4995152;28;87893;-43
2023/10/29 08:40:17;;;;;;;;;;;15.20;61.20;;;;;;4993034;28;89103;-43
2023/10/29 08:42:43;;;;;;;;;;;15.20;61.20;;;;;;4993929;28;88522;-44
2023/10/29 08:45:09;;;;;;;;;;;15.20;61.20;;;;;;4993796;28;89475;-44
2023/10/29 08:47:35;;;;;;;;;;;15.20;61.40;;;;;;4987961;28;87503;-45
2023/10/29 08:50:00;;;;;;;;;;;15.20;61.30;;;;;;4991972;28;87836;-43
2023/10/29 08:52:26;;;;;;;;;;;15.20;61.30;;;;;;4991556;28;88134;-44
2023/10/29 08:54:53;;;;;;;;;;;15.20;61.30;;;;;;4992751;28;87995;-44
2023/10/29 08:57:19;;;;;;;;;;;15.20;61.30;;;;;;4991293;28;87201;-43
2023/10/29 08:59:44;;;;;;;;;;;15.10;61.40;;;;;;4990805;28;89346;-43
2023/10/29 09:02:09;;;;;;;;;;;15.20;61.30;;;;;;4996023;28;87099;-43
2023/10/29 09:04:38;;;;;;;;;;;15.20;61.30;;;;;;4987735;28;89894;-44
2023/10/29 09:07:04;;;;;;;;;;;15.20;61.50;;;;;;4989006;28;87155;-43
2023/10/29 09:09:29;;;;;;;;;;;15.20;61.50;;;;;;4992027;28;88909;-43
2023/10/29 09:11:55;;;;;;;;;;;15.20;61.20;;;;;;4994341;28;88016;-43
2023/10/29 09:14:21;;;;;;;;;;;15.20;61.40;;;;;;4991541;28;87451;-47
2023/10/29 09:16:48;;;;;;;;;;;15.20;61.40;;;;;;4992582;28;87344;-44
2023/10/29 09:19:13;;;;;;;;;;;15.20;61.40;;;;;;4991889;28;88224;-43
2023/10/29 09:21:39;;;;;;;;;;;15.20;61.50;;;;;;4995736;28;87233;-43
2023/10/29 09:24:05;;;;;;;;;;;15.20;61.20;;;;;;4996158;28;88909;-43
2023/10/29 09:26:31;;;;;;;;;;;15.20;61.40;;;;;;4989955;28;87205;-44
2023/10/29 09:28:57;;;;;;;;;;;15.20;61.40;;;;;;4991875;28;88926;-43
2023/10/29 09:31:22;;;;;;;;;;;15.20;61.50;;;;;;4992065;28;88364;-44
2023/10/29 09:33:48;;;;;;;;;;;15.20;61.40;;;;;;4990727;28;88139;-44
2023/10/29 09:36:13;;;;;;;;;;;15.20;61.50;;;;;;4988858;28;87910;-44
2023/10/29 09:38:39;;;;;;;;;;;15.20;61.60;;;;;;4994413;28;88013;-43
2023/10/29 09:41:07;;;;;;;;;;;15.20;61.70;;;;;;4990626;28;88262;-44
2023/10/29 09:43:37;;;;;;;;;;;15.20;61.60;;;;;;4993303;28;89005;-43
2023/10/29 09:46:05;;;;;;;;;;;15.20;61.70;;;;;;4994509;28;87447;-43
2023/10/29 09:48:31;;;;;;;;;;;15.20;61.60;;;;;;4993705;28;86999;-43
2023/10/29 09:50:57;;;;;;;;;;;15.20;61.80;;;;;;4992457;28;88239;-44
2023/10/29 09:53:24;;;;;;;;;;;15.20;61.60;;;;;;4991583;28;88696;-45
2023/10/29 09:55:51;;;;;;;;;;;15.20;61.80;;;;;;4991322;28;89779;-44
2023/10/29 09:58:16;;;;;;;;;;;15.20;61.60;;;;;;4993310;28;89652;-44
2023/10/29 10:00:44;;;;;;;;;;;15.20;61.70;;;;;;4989987;28;87446;-44
2023/10/29 10:03:09;;;;;;;;;;;15.30;61.60;;;;;;4989930;28;87404;-44
2023/10/29 10:05:35;;;;;;;;;;;15.30;61.60;;;;;;4990980;28;87290;-44
2023/10/29 10:08:00;;;;;;;;;;;15.30;61.60;;;;;;4995662;28;88078;-44
2023/10/29 10:10:46;;;;;;;;;;;15.30;61.60;;;;;;4988715;28;87568;-45
2023/10/29 10:13:12;;;;;;;;;;;15.30;61.80;;;;;;4993936;28;87187;-44
2023/10/29 10:15:38;;;;;;;;;;;15.30;61.60;;;;;;4993803;28;88007;-44
2023/10/29 10:18:04;;;;;;;;;;;15.30;61.60;;;;;;4991353;28;89138;-45
2023/10/29 10:20:30;;;;;;;;;;;15.30;61.70;;;;;;4983430;28;87128;-44
2023/10/29 10:22:56;;;;;;;;;;;15.30;61.70;;;;;;4990880;28;87813;-45
2023/10/29 10:25:23;;;;;;;;;;;15.30;61.60;;;;;;4991830;28;88268;-47
2023/10/29 10:27:58;;;;;;;;;;;15.30;61.70;;;;;;4993194;28;88312;-44
2023/10/29 10:30:28;;;;;;;;;;;15.30;61.60;;;;;;4992279;28;87323;-43
2023/10/29 10:33:06;;;;;;;;;;;15.30;61.70;;;;;;4990360;28;87092;-46
2023/10/29 10:35:42;;;;;;;;;;;15.40;61.70;;;;;;4992312;28;87241;-43
2023/10/29 10:38:08;;;;;;;;;;;15.40;61.80;;;;;;4990641;28;87131;-44
2023/10/29 10:40:34;;;;;;;;;;;15.40;61.70;;;;;;4992538;28;87215;-44
2023/10/29 10:43:01;;;;;;;;;;;15.40;61.80;;;;;;4989721;28;88029;-44
2023/10/29 10:45:28;;;;;;;;;;;15.40;61.60;;;;;;4993533;28;89224;-44
2023/10/29 10:47:58;;;;;;;;;;;15.40;61.70;;;;;;4989420;28;87917;-43
2023/10/29 10:50:27;;;;;;;;;;;15.40;61.70;;;;;;4993226;28;88105;-45
2023/10/29 10:52:53;;;;;;;;;;;15.40;61.60;;;;;;4993320;28;87252;-44
2023/10/29 10:55:19;;;;;;;;;;;15.40;61.60;;;;;;4991469;28;87357;-45
2023/10/29 10:57:44;;;;;;;;;;;15.40;61.60;;;;;;4991193;28;90215;-45
2023/10/29 11:00:13;;;;;;;;;;;15.40;61.60;;;;;;4991744;28;87365;-44
2023/10/29 11:02:41;;;;;;;;;;;15.40;61.50;;;;;;4992205;28;89276;-45
2023/10/29 11:05:08;;;;;;;;;;;15.40;61.50;;;;;;4990494;28;88248;-44
2023/10/29 11:07:35;;;;;;;;;;;15.40;61.60;;;;;;4987199;28;88211;-44
2023/10/29 11:10:02;;;;;;;;;;;15.40;61.50;;;;;;4987919;28;87962;-44
2023/10/29 11:12:38;;;;;;;;;;;15.40;61.50;;;;;;4994634;28;88023;-45
2023/10/29 11:15:14;;;;;;;;;;;15.50;61.70;;;;;;4991894;28;88912;-44
2023/10/29 11:17:56;;;;;;;;;;;15.50;61.80;;;;;;4989237;28;89100;-44
2023/10/29 11:20:37;;;;;;;;;;;15.50;61.70;;;;;;4993678;28;87090;-44
2023/10/29 11:23:07;;;;;;;;;;;15.50;61.60;;;;;;4992218;28;87689;-45
2023/10/29 11:25:32;;;;;;;;;;;15.50;61.80;;;;;;4993355;28;87457;-44
2023/10/29 11:27:58;;;;;;;;;;;15.50;61.70;;;;;;4992920;28;87196;-45
2023/10/29 11:30:28;;;;;;;;;;;15.50;61.80;;;;;;4995819;28;87005;-44
2023/10/29 11:33:05;;;;;;;;;;;15.50;61.70;;;;;;4993644;28;90477;-45
2023/10/29 11:35:31;;;;;;;;;;;15.50;61.70;;;;;;4994783;28;87140;-44
2023/10/29 11:37:57;;;;;;;;;;;15.50;61.70;;;;;;4991758;28;88484;-44
2023/10/29 11:40:22;;;;;;;;;;;15.60;61.70;;;;;;4994812;28;87106;-45
2023/10/29 11:42:48;;;;;;;;;;;15.60;61.70;;;;;;4995283;28;87989;-44
2023/10/29 11:45:30;;;;;;;;;;;15.60;61.70;;;;;;4999610;28;88809;-43
2023/10/29 11:48:21;;;;;;;;;;;15.60;61.70;;;;;;4992740;28;87168;-44
2023/10/29 11:51:11;;;;;;;;;;;15.60;61.70;;;;;;4992390;28;86804;-43
2023/10/29 11:53:37;;;;;;;;;;;15.60;61.80;;;;;;4992304;28;88485;-45
2023/10/29 11:56:09;;;;;;;;;;;15.60;61.80;;;;;;4991851;28;87002;-44
2023/10/29 11:58:35;;;;;;;;;;;15.60;61.80;;;;;;4998469;28;87951;-47
2023/10/29 12:01:01;;;;;;;;;;;15.60;61.80;;;;;;4993050;28;87042;-44
2023/10/29 12:03:29;;;;;;;;;;;15.60;61.80;;;;;;4991934;28;88458;-46
2023/10/29 12:05:55;;;;;;;;;;;15.60;61.80;;;;;;4991810;28;89422;-44
2023/10/29 12:08:24;;;;;;;;;;;15.60;61.80;;;;;;4995108;28;87016;-45
2023/10/29 12:10:50;;;;;;;;;;;15.60;61.70;;;;;;4993427;28;87370;-46
2023/10/29 12:13:18;;;;;;;;;;;15.60;61.70;;;;;;4990478;28;88205;-44
2023/10/29 12:16:02;;;;;;;;;;;15.70;61.70;;;;;;4994157;28;86362;-44
2023/10/29 12:18:28;;;;;;;;;;;15.70;61.60;;;;;;4994180;28;87460;-44
2023/10/29 12:21:04;;;;;;;;;;;15.70;61.50;;;;;;4990769;28;88264;-45
2023/10/29 12:23:30;;;;;;;;;;;15.70;61.50;;;;;;4992696;28;89430;-44
2023/10/29 12:25:56;;;;;;;;;;;15.70;61.40;;;;;;4992444;28;87909;-44
2023/10/29 12:28:22;;;;;;;;;;;15.70;61.40;;;;;;4992621;28;87196;-44
2023/10/29 12:30:49;;;;;;;;;;;15.70;61.40;;;;;;4986243;28;89651;-45
2023/10/29 12:33:22;;;;;;;;;;;15.70;61.40;;;;;;4988721;28;87896;-44
2023/10/29 12:35:49;;;;;;;;;;;15.70;61.30;;;;;;4995195;28;87054;-44
2023/10/29 12:38:15;;;;;;;;;;;15.80;61.50;;;;;;4991905;28;88913;-44
2023/10/29 12:40:59;;;;;;;;;;;15.80;61.50;;;;;;4990225;28;87558;-44
2023/10/29 12:43:40;;;;;;;;;;;15.80;61.40;;;;;;4995335;28;86973;-44
2023/10/29 12:46:09;;;;;;;;;;;15.80;61.40;;;;;;4993729;28;87950;-45
2023/10/29 12:48:36;;;;;;;;;;;15.80;61.40;;;;;;4994380;28;88130;-43
2023/10/29 12:51:02;;;;;;;;;;;15.80;61.40;;;;;;4987414;28;88782;-44
2023/10/29 12:53:28;;;;;;;;;;;15.80;61.30;;;;;;4990862;28;89885;-47
2023/10/29 12:55:56;;;;;;;;;;;15.90;61.40;;;;;;4993254;28;87090;-44
2023/10/29 12:58:21;;;;;;;;;;;15.80;61.30;;;;;;4988447;28;87603;-45
2023/10/29 13:00:47;;;;;;;;;;;15.80;61.40;;;;;;4989555;28;88079;-47
2023/10/29 13:03:12;;;;;;;;;;;15.80;61.40;;;;;;4997874;28;86906;-46
2023/10/29 13:05:38;;;;;;;;;;;15.90;61.50;;;;;;4993344;28;86396;-44
2023/10/29 13:08:06;;;;;;;;;;;15.90;61.40;;;;;;4986731;28;87169;-44
2023/10/29 13:10:44;;;;;;;;;;;15.90;61.40;;;;;;4991096;28;87631;-45
2023/10/29 13:13:09;;;;;;;;;;;15.90;61.30;;;;;;4990235;28;90289;-44
2023/10/29 13:15:35;;;;;;;;;;;15.90;61.50;;;;;;4995174;28;87187;-44
2023/10/29 13:18:00;;;;;;;;;;;15.90;61.40;;;;;;4987395;28;89131;-46
2023/10/29 13:20:29;;;;;;;;;;;15.90;61.40;;;;;;4989431;28;88670;-44
2023/10/29 13:22:54;;;;;;;;;;;15.90;61.40;;;;;;4993036;28;87150;-45
2023/10/29 13:25:20;;;;;;;;;;;15.90;61.40;;;;;;4995077;28;87187;-44
2023/10/29 13:27:45;;;;;;;;;;;15.90;61.40;;;;;;4992826;28;87974;-44
2023/10/29 13:30:11;;;;;;;;;;;15.90;61.40;;;;;;4989371;28;87467;-44
2023/10/29 13:32:37;;;;;;;;;;;16.00;61.40;;;;;;4994650;28;88152;-46
2023/10/29 13:35:03;;;;;;;;;;;15.90;61.40;;;;;;4992737;28;87468;-50
2023/10/29 13:37:30;;;;;;;;;;;16.00;57.60;;;;;;4988641;28;88819;-49
2023/10/29 13:39:56;;;;;;;;;;;16.00;54.40;;;;;;4989666;28;88107;-45
2023/10/29 13:42:24;;;;;;;;;;;16.10;54.00;;;;;;4999236;28;87552;-51
2023/10/29 13:44:51;;;;;;;;;;;16.10;55.80;;;;;;4993512;28;87922;-52
2023/10/29 13:47:18;;;;;;;;;;;16.10;53.50;;;;;;4993095;28;88007;-46
2023/10/29 13:49:44;;;;;;;;;;;16.10;53.70;;;;;;4989998;28;88805;-45
2023/10/29 13:52:10;;;;;;;;;;;16.20;53.50;;;;;;4993621;28;88244;-47
2023/10/29 13:54:35;;;;;;;;;;;16.20;55.60;;;;;;4990118;28;86530;-45
2023/10/29 13:57:01;;;;;;;;;;;16.20;56.50;;;;;;4990071;28;88083;-47
2023/10/29 13:59:26;;;;;;;;;;;16.30;57.20;;;;;;4990950;28;88156;-48
2023/10/29 14:01:52;;;;;;;;;;;16.30;55.40;;;;;;4991733;28;88166;-46
2023/10/29 14:04:17;;;;;;;;;;;16.40;53.60;;;;;;4992286;28;88183;-43
2023/10/29 14:06:43;;;;;;;;;;;16.40;53.30;;;;;;4986333;28;88059;-48
2023/10/29 14:09:09;;;;;;;;;;;16.60;52.40;;;;;;4994639;28;87157;-45
2023/10/29 14:11:34;;;;;;;;;;;16.60;52.40;;;;;;4989822;28;87970;-48